Aviation Digital Data Service (ADDS)

Output produced by METARs form (2157 UTC 19 April 2021)
found at http://aviationweather.gov/metar/data/
 
KRYY 192150Z 31008KT 10SM CLR 20/04 A2994 RMK AO2 SLP862 T02000044 PNO $
KRYY 191737Z 1918/2018 32010G20KT P6SM FEW050 
     FM200000 32005KT P6SM SKC 
     FM200300 VRB03KT P6SM FEW250 
     FM201400 14004KT P6SM BKN200 
     FM201700 19006KT P6SM SCT200
       
KPUJ 192135Z AUTO 30006KT 7SM CLR 19/03 A2994 RMK AO2
KCNI 192135Z AUTO 29009G16KT 10SM CLR 20/02 A2994 RMK AO2
KPDK 192053Z 10SM CLR 21/05 A2992 RMK AO2 SLP127 T02060050 56007
KPDK 191737Z 1918/2018 32012G22KT P6SM FEW050 
     FM200000 31009KT P6SM SKC 
     FM200300 VRB03KT P6SM FEW250 
     FM201400 14005KT P6SM BKN200 
     FM201700 19006KT P6SM SCT200
       
KRMG 192053Z AUTO 33006KT 10SM SCT070 23/05 A2993 RMK AO2 SLP128 T02280050 56009
KATL 192152Z 28004KT 10SM FEW250 21/04 A2993 RMK AO2 SLP132 T02110039
KATL 191944Z 1920/2024 32012G22KT P6SM FEW050 
     FM200100 34005KT P6SM SKC 
     FM200800 03005KT P6SM BKN200 
     FM201400 12005KT P6SM BKN200 
     FM201700 19008KT P6SM SCT200 
     FM202300 23006KT P6SM FEW250
       
KFFC 192053Z AUTO 10SM CLR 22/03 A2993 RMK AO2 SLP132 T02170033 56010
KGAD 192056Z AUTO 35005KT 10SM CLR 20/07 A2997 RMK AO2 SLP150 T02000067 56012
KCHA 192053Z 33007KT 10SM SCT065 22/04 A2995 RMK AO2 SLP138 T02170044 56010
KCHA 191733Z 1918/2018 33007KT P6SM SCT050 
     FM191900 34005KT P6SM SCT200 
     FM201500 17005KT P6SM SCT250
       
KDNN 192135Z AUTO 35005KT 10SM CLR 20/01 A2996 RMK AO2
KAHN 192151Z 29007KT 6SM HZ CLR 23/02 A2989 RMK AO2 SLP119 T02330017
KAHN 191737Z 1918/2018 31008KT P6SM FEW050 
     FM200000 VRB03KT P6SM SKC 
     FM201400 11004KT P6SM BKN200 
     FM201700 18005KT P6SM BKN200
       
KLZU 192056Z 28007KT 240V330 10SM CLR 22/05 A2991 RMK AO2 SLP134 T02170050 55007
KJZP 192135Z AUTO 33008KT 10SM CLR 19/04 A2997 RMK AO2 T01850043
KMCN 192153Z 35007KT 300V020 10SM CLR 24/05 A2990 RMK AO2 SLP123 T02390050
KMCN 191737Z 1918/2018 32012G22KT P6SM SKC 
     FM200400 VRB03KT P6SM FEW250 
     FM201700 17005KT P6SM BKN200
       
KSAV 192153Z 29010KT 10SM CLR 24/03 A2987 RMK AO2 SLP114 T02440033
KSAV 191733Z 1918/2018 29012G20KT P6SM SKC 
     FM192200 31007KT P6SM SKC 
     FM200400 03006KT P6SM SCT250 
     FM201400 12010KT P6SM BKN150
       
KWDR 192135Z AUTO 31006KT CLR 21/02 A2993 RMK AO2 PWINO
KGVL 192053Z AUTO 10SM CLR 22/01 A2991 RMK AO2 SLP119 T02170011 56007
KMGE 192056Z 33008KT 10SM FEW060 21/04 A2993 RMK AO2A SLP132 T02100037 56007 $
TAF KMGE 192105Z 1921/2103 30010G15KT 9999 FEW060 QNH2990INS 
     BECMG 2000/2001 34005KT 9999 SKC QNH2992INS 
     BECMG 2008/2009 04005KT 9999 BKN250 QNH3000INS 
     BECMG 2011/2012 12005KT 9999 BKN250 QNH3000INS 
     BECMG 2017/2018 21008KT 9999 FEW050 SCT250 QNH2992INS TX24/2020Z TN08/2011Z